x

9441102 - Westport, Wa (wptw1) Weather Station

8:30 - Mon 20th Feb 2017 All times are PST. -8 hours from GMT.

  • Wind
    6mph, 8mph gusts
  • Sea Temp 48°f
  • Aire Temp 44°f
  • Sea Pressure 1005.4mb
  • 9441102 - Westport, Wa
  • 9441102 - Westport, Wa

More Historic Weather Station data

Upgrade to MSW Pro to gain access to the past 30 days of data for over 8000 Wavebouys and Weather Stations around the globe.

Join Pro

Comparision Forecast

View Surf forecast
   
lun 02/20 8:30 6 8 mph 1005.4mb 48f 44f
8:24 6 8 mph 1005.4mb 48f 45f
8:18 7 8 mph 1005.4mb 48f 44f
8:12 7 8 mph 1005.3mb 48f 44f
8:06 8
mph
1005.3mb 48f 44f
8:00 6 8 mph 1005.3mb 48f 45f
7:36 7 8 mph 1005.3mb 48f 44f
7:30 6 7 mph 1005.4mb 47f 44f
7:24 5 6 mph 1005.4mb 47f 44f
7:18 5 6 mph 1005.4mb 47f 44f
7:12 5
mph
1005.4mb 47f 44f
7:06 3
mph
1005.3mb 47f 44f
7:00 3
mph
1005.3mb 47f 44f
6:36 5
mph
1005.4mb 47f 44f
6:30 5 6 mph 1005.4mb 47f 44f
6:24 3 6 mph 1005.4mb 47f 44f
6:18 5 6 mph 1005.3mb 47f 44f
6:12 5 6 mph 1005.3mb 47f 45f
6:06 5 6 mph 1005.2mb 47f 44f
6:00 5 6 mph 1005.2mb 47f 45f
5:36 3 5 mph 1005.3mb 47f 45f
5:30 5
mph
1005.3mb 47f 45f
5:24 5 7 mph 1005.3mb 47f 45f
5:18 5 8 mph 1005.3mb 47f 45f
5:12 5 7 mph 1005.3mb 47f 45f
5:06 5 7 mph 1005.2mb 47f 45f
5:00 6 8 mph 1005.2mb 47f 45f
4:36 6 8 mph 1005.2mb 47f 45f
4:30 7 9 mph 1005.2mb 47f 45f
4:24 6 8 mph 1005.2mb 47f 45f
4:18 6 9 mph 1005.1mb 47f 45f
4:12 5 8 mph 1005mb 47f 45f
4:06 6 9 mph 1004.9mb 47f 45f
4:00 6 8 mph 1004.9mb 47f 45f
3:36 7 10 mph 1004.8mb 47f 45f
3:30 7 11 mph 1004.7mb 47f 45f
3:24 8 11 mph 1004.7mb 47f 45f
3:18 8 11 mph 1004.6mb 47f 45f
3:12 7 10 mph 1004.5mb 47f 45f
3:06 6 10 mph 1004.4mb 47f 45f
3:00 8 11 mph 1004.3mb 47f 45f
2:36 9 13 mph 1004.1mb 47f 45f
2:30 10 14 mph 1004.1mb 47f 45f
2:24 9 13 mph 1004mb 47f 46f
2:18 10 13 mph 1003.8mb 47f 45f
2:12 9 13 mph 1003.7mb 47f 45f
2:06 9 11 mph 1003.6mb 47f 45f
2:00 6 10 mph 1003.6mb 47f 46f
1:36 7 9 mph 1003.5mb 47f 45f
1:30 7 10 mph 1003.5mb 47f 45f
1:24 7 10 mph 1003.4mb 47f 45f
1:18 6 8 mph 1003.3mb 47f 45f
1:12 7 9 mph 1003.3mb 47f 45f
1:06 6 7 mph 1003.2mb 47f 45f
1:00 6 7 mph 1003.1mb 47f 45f
12:36 3 5 mph 1002.8mb 47f 44f
12:30 3 7 mph 1002.7mb 47f 45f
12:24 2 3 mph 1002.6mb 47f 44f
12:18 2 3 mph 1002.4mb 47f 45f
12:12 2 3 mph 1002.4mb 47f 45f
12:06  -  3 mph 1002.4mb 47f 44f
12:00 2 3 mph 1002.3mb 47f 44f
11:36 1 2 mph 1001.7mb 48f 45f
11:30 2 3 mph 1001.6mb 48f 45f
11:24 1 2 mph 1001.5mb 48f 44f
11:18  -  2 mph 1001.3mb 48f 45f
11:12 1 2 mph 1001.1mb 48f 45f
11:06 1 3 mph 1001mb 48f 44f
11:00 2 3 mph 1000.8mb 48f 44f
10:36 2 5 mph 1000mb 48f 44f
10:30 3 5 mph 999.8mb 48f 44f
10:24 5 6 mph 999.6mb 48f 44f
10:18 3 6 mph 999.5mb 48f 44f
10:12 3 6 mph 999.4mb 48f 44f
10:06 7 8 mph 999.3mb 48f 43f
10:00 5 7 mph 999.2mb 48f 43f
9:36 7 8 mph 998.8mb 48f 43f
9:30 6 9 mph 998.7mb 48f 43f
9:24 6 8 mph 998.6mb 48f 43f
9:18 8 10 mph 998.5mb 48f 42f
9:12 9 11 mph 998.4mb 48f 42f
9:06 9 13 mph 998.4mb 48f 42f
9:00 11 14 mph 998.4mb 48f 42f
8:36 11 15 mph 998.3mb 48f 42f
8:30 13 16 mph 998.2mb 48f 42f
8:24 13 17 mph 998.2mb 48f 42f
8:18 13 17 mph 998.1mb 48f 42f
8:12 15 18 mph 998mb 48f 42f
8:06 14 17 mph 997.9mb 48f 42f
8:00 13 18 mph 997.8mb 48f 42f
7:36 15 17 mph 997.8mb 48f 42f
7:30 14 17 mph 997.8mb 48f 42f
7:24 14 16 mph 997.7mb 48f 42f
7:18 11 16 mph 997.7mb 48f 42f
7:12 16 20 mph 997.7mb 48f 42f
7:06 14 18 mph 997.7mb 48f 42f
7:00 14 18 mph 997.7mb 48f 42f
6:36 17 21 mph 997.6mb 48f 42f
6:30 14 18 mph 997.7mb 48f 42f
6:24 15 18 mph 997.7mb 48f 42f
6:18 14 16 mph 997.7mb 48f 42f
6:12 10 14 mph 997.8mb 48f 42f
6:06 9 14 mph 997.9mb 48f 42f
6:00 8 13 mph 998mb 48f 42f
5:36 11 13 mph 998.2mb 48f 42f
5:30 10 13 mph 998.3mb 48f 42f
5:24 10 13 mph 998.3mb 48f 42f
5:18 9 11 mph 998.3mb 48f 42f
5:12 8 11 mph 998.3mb 48f 42f
5:06 10 11 mph 998.3mb 48f 42f
5:00 9 11 mph 998.4mb 48f 42f
4:36 14 17 mph 998.5mb 48f 42f
4:30 13 17 mph 998.6mb 48f 42f
4:24 14 17 mph 998.5mb 48f 42f
4:18 13 16 mph 998.6mb 48f 42f
4:12 13 18 mph 998.6mb 48f 42f
4:06 11 15 mph 998.7mb 48f 42f
4:00 9 14 mph 998.8mb 48f 42f
3:36 7 10 mph 999.2mb 48f 42f
3:30 9 11 mph 999.3mb 47f 42f
3:24 10 13 mph 999.3mb 47f 42f
3:18 9 11 mph 999.4mb 47f 42f
3:12 11 13 mph 999.5mb 47f 42f
3:06 9 13 mph 999.7mb 48f 42f
3:00 10 13 mph 999.8mb 48f 42f
2:36 9 11 mph 1000.2mb 48f 42f
2:30 10 11 mph 1000.3mb 48f 42f
2:24 9 11 mph 1000.3mb 48f 42f
2:18 9 11 mph 1000.5mb 48f 42f
2:12 8 9 mph 1000.6mb 48f 42f
2:06 8 10 mph 1000.7mb 47f 42f
2:00 9 10 mph 1000.7mb 47f 42f
1:36 8
mph
1001mb 48f 42f
1:30 7 9 mph 1001mb 48f 42f
1:24 7 9 mph 1001mb 48f 42f
1:18 7 8 mph 1001mb 48f 42f
1:12 7 9 mph 1001mb 48f 43f
1:06 8 9 mph 1001mb 48f 43f
1:00 6 7 mph 1001.1mb 48f 43f
12:36 7 9 mph 1001.2mb 48f 43f
12:30 6 8 mph 1001.3mb 48f 43f
12:24 7 8 mph 1001.4mb 48f 43f
12:18 5 6 mph 1001.4mb 48f 43f
12:12 3 7 mph 1001.4mb 48f 43f
12:06 6 9 mph 1001.4mb 48f 43f
12:00 5 9 mph 1001.4mb 48f 43f
dom 02/19 11:36 6 9 mph 1001.7mb 48f 43f
11:30 7 8 mph 1001.7mb 48f 43f
11:24 6 10 mph 1001.8mb 48f 43f
11:18 7 9 mph 1001.8mb 48f 43f
11:12 6 9 mph 1001.8mb 48f 44f
11:06 7 8 mph 1001.7mb 48f 44f
11:00 7 10 mph 1001.7mb 48f 44f
10:36 7 9 mph 1001.6mb 48f 44f
10:30 7 8 mph 1001.7mb 48f 44f
10:24 6 7 mph 1001.6mb 48f 43f
10:18 6 8 mph 1001.6mb 48f 43f
10:12 6 8 mph 1001.6mb 48f 43f
10:06 6 8 mph 1001.6mb 48f 43f
10:00 6 8 mph 1001.6mb 48f 44f
9:36 7 10 mph 1001.4mb 48f 45f
9:30 7 9 mph 1001.4mb 48f 46f
9:24 7 10 mph 1001.4mb 48f 46f
9:18 8 10 mph 1001.3mb 48f 46f
9:12 8 11 mph 1001.3mb 48f 46f
9:06 9 11 mph 1001.1mb 48f 46f
9:00 9 13 mph 1001.1mb 48f 46f
8:54 10 14 mph 1001.1mb 48f 46f
8:48 10 14 mph 1001.1mb 48f 46f
8:36 10 14 mph 1000.9mb 48f 46f
8:30 8 10 mph 1000.9mb 48f 46f
8:24 8 11 mph 1000.8mb 48f 46f
8:18 9 13 mph 1000.8mb 48f 46f
8:12 10 14 mph 1000.7mb 48f 46f
8:06 11 14 mph 1000.6mb 48f 46f
8:00 10 14 mph 1000.5mb 48f 46f
7:54 11 15 mph 1000.5mb 48f 46f
7:48 13 17 mph 1000.4mb 48f 46f
7:36 13 17 mph 1000.4mb 48f 46f
7:30 13 16 mph 1000.4mb 48f 46f
7:24 13 16 mph 1000.4mb 48f 46f
7:18 11 17 mph 1000.3mb 48f 46f
7:12 15 18 mph 1000.2mb 48f 46f
7:06 15 18 mph 1000.1mb 48f 46f
7:00 15 20 mph 1000mb 48f 46f
6:54 14 20 mph 999.9mb 48f 46f
6:48 14 17 mph 999.8mb 48f 46f
6:36 11 17 mph 999.7mb 48f 46f
6:30 15 18 mph 999.6mb 48f 46f
6:24 15 21 mph 999.6mb 48f 46f
6:18 14 20 mph 999.5mb 48f 46f
6:12 15 20 mph 999.4mb 48f 46f
6:06 14 18 mph 999.3mb 48f 46f
6:00 15 20 mph 999.2mb 48f 46f
5:54 15 20 mph 999.1mb 48f 46f
5:48 13 20 mph 999.1mb 48f 46f
5:36 18 22 mph 998.9mb 48f 46f
5:30 17 22 mph 998.8mb 48f 46f
5:24 17 22 mph 998.7mb 48f 46f
5:18 18 23 mph 998.6mb 48f 46f
5:12 18 23 mph 998.5mb 48f 47f
5:06 16 23 mph 998.4mb 48f 47f
5:00 17 23 mph 998.3mb 48f 46f
4:54 17 22 mph 998.1mb 48f 46f
4:48 18 24 mph 998.1mb 48f 46f
4:36 15 22 mph 997.9mb 47f 45f
4:30 16 22 mph 997.9mb 47f 45f
4:24 13 21 mph 997.8mb 47f 45f
4:18 17 23 mph 997.7mb 47f 45f
4:12 17 23 mph 997.6mb 47f 45f
4:06 15 24 mph 997.5mb 47f 45f
4:00 14 20 mph 997.4mb 47f 45f
3:36 13 18 mph 997mb 48f 45f
3:30 13 20 mph 997mb 48f 45f
3:24 11 18 mph 996.9mb 47f 45f
3:18 13 20 mph 996.9mb 47f 45f
3:12 15 21 mph 996.9mb 47f 44f
3:06 13 18 mph 996.9mb 47f 44f
3:00 11 22 mph 996.9mb 47f 44f
2:54 16 21 mph 996.9mb 47f 43f
2:48 14 22 mph 996.8mb 47f 43f
2:36 9 14 mph 996.4mb 47f 43f
2:30 10 15 mph 996.3mb 47f 42f
2:24 11 16 mph 996.3mb 48f 42f
2:18 9 18 mph 996.3mb 48f 42f
2:12 14 20 mph 996.4mb 48f 42f
2:06 11 18 mph 996.4mb 48f 42f
2:00 11 16 mph 996.4mb 48f 42f
1:54 13 18 mph 996.4mb 48f 42f
1:48 13 18 mph 996.4mb 48f 42f
1:36 13 17 mph 996.4mb 48f 42f
1:30 13 21 mph 996.4mb 48f 42f
1:24 10 15 mph 996.4mb 48f 42f
1:18 8 14 mph 996.5mb 48f 42f
1:12 13 24 mph 996.4mb 48f 43f
1:06 14 25 mph 996.3mb 48f 43f
1:00 16 25 mph 996.2mb 48f 43f
12:54 10 21 mph 996.1mb 48f 43f
12:48 10 15 mph 996mb 48f 43f
12:36 14 21 mph 995.9mb 48f 43f
12:30 11 17 mph 996mb 48f 42f
12:24 11 18 mph 996mb 48f 42f
12:18 14 20 mph 995.8mb 48f 42f
12:12 15 22 mph 995.7mb 48f 42f
12:06 14 23 mph 995.8mb 48f 42f
12:00 14 22 mph 995.9mb 48f 42f
11:54 14 21 mph 995.8mb 48f 42f
11:48 16 24 mph 995.6mb 48f 42f
11:36 15 22 mph 995.7mb 48f 42f
11:30 14 23 mph 995.6mb 48f 42f
11:24 14 20 mph 995.6mb 48f 42f
11:18 14 22 mph 995.4mb 48f 42f
11:12 15 23 mph 995.4mb 48f 42f
11:06 13 20 mph 995.3mb 48f 42f
11:00 14 20 mph 995.3mb 48f 42f
10:54 11 18 mph 995.2mb 48f 42f
10:48 14 23 mph 995.1mb 48f 42f
10:36 16 28 mph 994.8mb 48f 42f
10:30 15 25 mph 994.5mb 48f 42f
10:24 20 26 mph 994.4mb 48f 42f
10:18 20 30 mph 994.5mb 48f 42f
10:12 20 28 mph 994.5mb 48f 42f
10:06 16 24 mph 994.5mb 48f 42f
10:00 18 26 mph 994.7mb 48f 42f
9:54 16 29 mph 994.6mb 48f 42f
9:48 17 25 mph 994.5mb 48f 42f
9:36 15 22 mph 994.2mb 49f 42f
9:30 17 22 mph 994.1mb 49f 42f
9:24 14 20 mph 994.2mb 49f 41f
9:18 17 25 mph 994.1mb 48f 41f
9:12 17 25 mph 994mb 48f 41f
9:06 17 23 mph 994mb 48f 41f
9:00 15 25 mph 993.9mb 49f 41f
8:54 11 24 mph 994mb 49f 41f
8:48 16 26 mph 994.2mb 49f 41f
8:36 14 20 mph 993.8mb 49f 42f
8:30 14 22 mph 994mb 49f 41f
8:24 16 22 mph 993.8mb 49f 41f
8:18 14 22 mph 993.6mb 49f 41f
8:12 15 22 mph 993.6mb 49f 41f
8:06 14 23 mph 993.6mb 49f 41f
8:00 14 21 mph 993.6mb 49f 41f
7:54 13 17 mph 993.6mb 49f 41f
7:48 13 18 mph 993.4mb 49f 41f
7:36 15 21 mph 993.3mb 49f 41f
7:30 15 22 mph 993.5mb 49f 41f
7:24 13 22 mph 993.4mb 49f 41f
7:18 11 20 mph 993.5mb 49f 41f
7:12 14 21 mph 993.4mb 49f 41f
7:06 14 21 mph 993.3mb 49f 41f
7:00 14 21 mph 993.2mb 49f 41f
6:54 16 22 mph 993.3mb 49f 41f
6:48 11 17 mph 993.3mb 49f 40f
6:36 13 20 mph 993.3mb 49f 41f
6:30 16 21 mph 993.2mb 49f 41f
6:24 16 22 mph 993.2mb 49f 41f
6:18 15 20 mph 993.3mb 49f 41f
6:12 15 20 mph 993.3mb 49f 41f
6:06 15 20 mph 993.2mb 49f 41f
6:00 14 20 mph 993.1mb 49f 41f
5:54 16 21 mph 993.1mb 49f 41f
5:48 14 20 mph 993.2mb 49f 41f
5:36 14 17 mph 993.3mb 49f 40f
5:30 13 18 mph 993.3mb 49f 40f
5:24 11 20 mph 993.3mb 49f 40f
5:18 14 21 mph 993.3mb 48f 40f
5:12 13 23 mph 993.4mb 48f 41f
5:06 10 17 mph 993.3mb 49f 41f
5:00 13 20 mph 993.3mb 49f 40f
4:54 11 21 mph 993.2mb 49f 40f
4:48 11 16 mph 993.3mb 49f 40f
4:36 9 14 mph 993.4mb 49f 40f
4:30 10 14 mph 993.4mb 49f 40f
4:24 8 13 mph 993.3mb 49f 40f
4:18 10 14 mph 993.3mb 49f 40f
4:12 9 11 mph 993.4mb 49f 40f
4:06 9 13 mph 993.4mb 48f 40f
4:00 13 16 mph 993.4mb 49f 40f
3:54 13 16 mph 993.3mb 49f 40f
3:48 11 15 mph 993.4mb 48f 40f
3:36 13 16 mph 993.5mb 48f 40f
3:30 10 15 mph 993.5mb 48f 40f
3:24 11 17 mph 993.5mb 48f 40f
3:18 9 15 mph 993.5mb 48f 40f
3:12 11 16 mph 993.6mb 48f 40f
3:06 14 17 mph 993.8mb 48f 40f
3:00 14 17 mph 993.8mb 48f 40f
2:54 13 16 mph 993.9mb 48f 40f
2:48 13 16 mph 994mb 48f 40f
2:36 15 17 mph 994.2mb 48f 40f
2:30 13 17 mph 994.2mb 48f 41f
2:24 13 17 mph 994.2mb 48f 41f
2:18 11 16 mph 994.2mb 48f 40f
2:12 11 16 mph 994.2mb 48f 41f
2:06 11 15 mph 994.3mb 48f 40f
2:00 10 14 mph 994.4mb 48f 41f
1:36 10 15 mph 994.8mb 48f 41f
1:30 10 15 mph 994.8mb 48f 41f
1:24 10 14 mph 994.8mb 48f 41f
1:18 9 13 mph 994.9mb 48f 41f
1:12 8 11 mph 994.9mb 48f 41f
1:06 8 10 mph 995mb 48f 41f
1:00 7 10 mph 995.1mb 48f 41f
12:54 7 9 mph 995.1mb 48f 41f
12:48 7 11 mph 995.1mb 48f 41f
12:36 8 10 mph 995.2mb 48f 41f
12:30 7 10 mph 995.3mb 48f 41f
12:24 8 10 mph 995.3mb 48f 41f
12:18 8 10 mph 995.3mb 48f 41f
12:12 8 9 mph 995.4mb 48f 41f
12:06 8 11 mph 995.4mb 48f 41f
12:00 7 10 mph 995.5mb 48f 41f
sáb 02/18 11:54 8 10 mph 995.6mb 48f 41f
11:48 10 13 mph 995.6mb 48f 41f
11:36 8 11 mph 995.8mb 48f 41f
11:30 9 14 mph 995.8mb 48f 41f
11:24 8 10 mph 995.8mb 48f 41f
11:18 8 10 mph 995.8mb 48f 41f
11:12 8 10 mph 995.9mb 48f 41f
11:06 8 10 mph 995.9mb 48f 41f
11:00 7 9 mph 995.9mb 48f 42f
10:54 7 10 mph 995.9mb 48f 42f
10:48 8 10 mph 995.9mb 48f 42f
10:36 7 8 mph 995.9mb 48f 42f
10:30 6 8 mph 995.9mb 48f 42f
10:24 6 8 mph 995.9mb 48f 42f
10:18 6 9 mph 995.9mb 48f 42f
10:12 6 7 mph 996mb 48f 42f
10:06 6 7 mph 996mb 48f 42f
10:00 6 9 mph 996mb 48f 42f
9:54 6 10 mph 996.1mb 48f 42f
9:48 6 9 mph 996.1mb 48f 42f
9:36 6 9 mph 996.2mb 48f 42f
9:30 6 9 mph 996.2mb 48f 42f
9:24 9 20 mph 996.3mb 48f 43f
9:18 8 15 mph 996.2mb 48f 43f
9:12 7 13 mph 996.2mb 48f 43f
9:06 7 10 mph 996.2mb 48f 44f
9:00 9 14 mph 996.2mb 48f 44f
8:54 9 14 mph 996.3mb 48f 44f
8:48 9 14 mph 996.3mb 48f 44f
8:36 10 13 mph 996.3mb 48f 44f
8:30 8 13 mph 996.3mb 48f 44f
8:24 7 10 mph 996.3mb 48f 44f
8:18 8 11 mph 996.3mb 48f 44f
8:12 9 13 mph 996.3mb 48f 43f
8:06 10 14 mph 996.3mb 48f 44f
8:00 11 14 mph 996.3mb 48f 44f
7:54 10 14 mph 996.3mb 48f 43f
7:48 11 17 mph 996.3mb 48f 44f
7:36 10 16 mph 996.4mb 48f 44f
7:30 9 13 mph 996.4mb 48f 44f
7:24 10 20 mph 996.4mb 48f 43f
7:18 13 17 mph 996.3mb 48f 44f
7:12 9 13 mph 996.2mb 48f 45f
7:06 9 11 mph 996.2mb 48f 45f
7:00 10 11 mph 996.1mb 48f 45f
6:54 10 13 mph 996.1mb 48f 45f
6:48 9 11 mph 996.2mb 48f 44f
6:36 8 11 mph 996.2mb 48f 45f
6:30 8 11 mph 996.2mb 48f 45f
6:24 11 14 mph 996.2mb 48f 45f
6:18 10 14 mph 996.3mb 48f 45f
6:12 13 15 mph 996.2mb 48f 45f
6:06 9 14 mph 996.2mb 48f 45f
6:00 11 13 mph 996.2mb 48f 45f
5:54 10 13 mph 996.2mb 48f 46f
5:48 10 13 mph 996.2mb 48f 46f
5:36 11 14 mph 996.2mb 48f 46f
5:30 11 13 mph 996.2mb 48f 46f
5:24 10 13 mph 996.2mb 48f 46f
5:18 11 14 mph 996.2mb 48f 46f
5:12 11 13 mph 996.2mb 48f 46f
5:06 11 15 mph 996.2mb 48f 46f
5:00 13 14 mph 996.2mb 48f 46f
4:54 10 14 mph 996.1mb 48f 46f
4:48 13 14 mph 996.2mb 48f 46f
4:36 14 16 mph 996.2mb 48f 46f
4:30 14 16 mph 996.3mb 48f 46f
4:24 14 16 mph 996.2mb 48f 46f
4:18 14 16 mph 996.2mb 48f 46f
4:12 14 16 mph 996.3mb 48f 46f
4:06 15 17 mph 996.3mb 48f 46f
4:00 14 16 mph 996.3mb 48f 46f
3:36 7 8 mph 996.3mb 48f 45f
3:30 7 8 mph 996.2mb 48f 45f
3:24 7 9 mph 996.1mb 48f 45f
3:18 8 9 mph 996.1mb 48f 46f
3:12 8 10 mph 996.2mb 48f 46f
3:06 8 10 mph 996.2mb 48f 46f
3:00 7 8 mph 996.1mb 48f 46f
2:54 5 7 mph 996mb 48f 46f
2:48 6 8 mph 996mb 48f 46f
2:36 6 9 mph 996mb 48f 46f
2:30 7 8 mph 996mb 48f 46f
2:24 6 9 mph 996mb 48f 46f
2:18 6 8 mph 995.9mb 48f 46f
2:12 6 8 mph 995.9mb 48f 46f
2:06 5 7 mph 995.9mb 48f 47f
2:00 5 7 mph 995.9mb 48f 46f
1:54 5 6 mph 995.9mb 48f 46f
1:48 3 6 mph 995.9mb 48f 46f
1:36 5 7 mph 996mb 48f 46f
1:30 6 7 mph 996.1mb 48f 45f
1:24 5 6 mph 996mb 48f 45f
1:18 3 6 mph 996.1mb 48f 45f
1:12 5 7 mph 996.3mb 48f 45f
1:06 5 8 mph 996.3mb 48f 45f
1:00 3 5 mph 996.4mb 48f 45f
12:54 2 3 mph 996.4mb 48f 45f
12:48 1 3 mph 996.3mb 48f 46f
12:36 3 7 mph 996.2mb 48f 46f
12:30 5 7 mph 996.2mb 48f 46f
12:24 6 7 mph 996.3mb 48f 45f
12:18 6 8 mph 996.3mb 48f 45f
12:12 7 8 mph 996.3mb 48f 45f
12:06 6 8 mph 996.4mb 48f 45f
12:00 6 8 mph 996.4mb 48f 45f
11:54 7 8 mph 996.4mb 48f 45f
11:48 6 8 mph 996.4mb 48f 45f
11:36 7 9 mph 996.4mb 48f 45f
11:30 6 8 mph 996.4mb 48f 45f
11:24 5 7 mph 996.4mb 48f 45f
11:18 3 7 mph 996.4mb 48f 45f
11:12 5 7 mph 996.4mb 48f 45f
11:06 5 8 mph 996.5mb 48f 45f
11:00 6 7 mph 996.5mb 48f 45f
10:54 5 7 mph 996.5mb 48f 44f
10:48 5 6 mph 996.6mb 48f 44f
10:36 5 7 mph 996.6mb 48f 44f
10:30 6 7 mph 996.6mb 48f 44f
10:24 5 7 mph 996.6mb 48f 44f
10:18 6 7 mph 996.7mb 48f 43f
10:12 7 8 mph 996.8mb 48f 43f
10:06 6 10 mph 996.8mb 48f 43f
10:00 8 9 mph 996.8mb 48f 43f
9:54 8 9 mph 996.8mb 48f 43f
9:48 7 9 mph 996.9mb 48f 43f
9:36 6 8 mph 996.8mb 48f 43f
9:30 7 9 mph 996.7mb 48f 43f
9:24 8 10 mph 996.7mb 48f 43f
9:18 9 11 mph 996.7mb 48f 43f
9:12 8 13 mph 996.7mb 48f 43f
9:06 11 13 mph 996.6mb 48f 43f
9:00 11 14 mph 996.6mb 48f 43f
8:54 13 16 mph 996.6mb 48f 43f
8:48 9 11 mph 996.7mb 48f 43f
8:36 8 10 mph 996.7mb 48f 43f
8:30 6 11 mph 996.8mb 48f 43f
8:24 10 11 mph 996.8mb 48f 43f
8:18 9 11 mph 996.8mb 48f 43f
8:12 8 10 mph 996.8mb 48f 43f
8:06 7 11 mph 996.8mb 48f 43f
8:00 8 11 mph 996.8mb 48f 43f
7:54 9 10 mph 996.8mb 48f 43f
7:48 7 9 mph 996.8mb 49f 43f
7:36 8 10 mph 996.9mb 48f 43f
7:30 8 10 mph 996.9mb 48f 43f
7:24 9 10 mph 996.9mb 49f 43f
7:18 8 9 mph 997mb 49f 43f
7:12 7 9 mph 997mb 49f 43f
7:06 8 9 mph 997mb 48f 43f
7:00 8 10 mph 996.9mb 48f 43f
6:54 8 9 mph 997mb 49f 43f
6:48 9 10 mph 997.1mb 49f 43f
6:36 10 11 mph 997.1mb 49f 43f
6:30 10 11 mph 997.1mb 48f 44f
6:24 10 11 mph 997.1mb 49f 44f
6:18 8 10 mph 997.1mb 49f 44f
6:12 9 11 mph 997.2mb 49f 44f
6:06 9 10 mph 997.2mb 49f 44f
6:00 9 10 mph 997.1mb 49f 44f
5:36 8 9 mph 997.3mb 49f 44f
5:30 8 11 mph 997.3mb 49f 44f
5:24 7 10 mph 997.4mb 49f 44f
5:18 7 10 mph 997.5mb 49f 44f
5:12 8 10 mph 997.5mb 49f 44f
5:06 10 11 mph 997.5mb 49f 44f
5:00 8 11 mph 997.5mb 49f 44f
4:54 10 11 mph 997.5mb 49f 44f
4:48 9 11 mph 997.5mb 49f 44f
4:36 10 13 mph 997.3mb 48f 43f
4:30 7 11 mph 997.2mb 48f 43f
4:24 7 11 mph 997.2mb 48f 43f
4:18 7 11 mph 997.1mb 48f 43f
4:12 10 13 mph 997.1mb 48f 43f
4:06 9 13 mph 997.1mb 49f 43f
4:00 11 15 mph 997mb 48f 43f
3:54 11 14 mph 997mb 48f 43f
3:48 11 14 mph 997.1mb 48f 43f
3:36 8 11 mph 997.1mb 48f 44f
3:30 9 10 mph 997.1mb 48f 44f
3:24 9 13 mph 997.1mb 48f 44f
3:18 8 13 mph 997.1mb 48f 44f
3:12 9 11 mph 997.1mb 48f 44f
3:06 8 10 mph 997.2mb 48f 45f
3:00 8 11 mph 997.2mb 48f 45f
2:54 9 11 mph 997.2mb 48f 45f
2:48 10 13 mph 997.2mb 48f 45f
2:36 9 11 mph 997.3mb 48f 45f
2:30 9 11 mph 997.3mb 48f 45f
2:24 10 13 mph 997.3mb 48f 46f
2:18 10 13 mph 997.3mb 48f 46f
2:12 9 13 mph 997.3mb 48f 46f
2:06 10 13 mph 997.3mb 48f 46f
2:00 9 11 mph 997.4mb 48f 46f
1:54 9 13 mph 997.4mb 48f 46f
1:48 10 13 mph 997.4mb 48f 46f
1:36 11 14 mph 997.4mb 48f 46f
1:30 13 15 mph 997.4mb 48f 46f
1:24 11 14 mph 997.4mb 48f 46f
1:18 11 15 mph 997.4mb 48f 46f
1:12 11 14 mph 997.4mb 48f 46f
1:06 10 13 mph 997.4mb 48f 46f
1:00 9 11 mph 997.4mb 48f 46f
12:54 9 13 mph 997.5mb 48f 46f
12:48 8 10 mph 997.5mb 48f 46f
12:36 8 10 mph 997.6mb 48f 46f
12:30 6 7 mph 997.7mb 48f 46f
12:24 5 6 mph 997.7mb 48f 46f
12:18 3 6 mph 997.6mb 48f 46f
12:12 7 8 mph 997.5mb 48f 46f
12:06 6 8 mph 997.5mb 48f 46f
12:00 7 10 mph 997.6mb 48f 46f
vie 02/17 11:54 9 10 mph 997.6mb 48f 46f
11:48 8 9 mph 997.7mb 48f 46f
11:36 7 9 mph 997.9mb 48f 46f
11:30 7 10 mph 997.8mb 48f 46f
11:24 8 10 mph 997.9mb 48f 46f
11:18 8 10 mph 998mb 48f 46f
11:12 7 9 mph 998mb 48f 46f
11:06 7 10 mph 998.1mb 48f 46f
11:00 8 10 mph 998.1mb 48f 46f
10:54 7 9 mph 998.3mb 48f 46f
10:48 7 9 mph 998.3mb 48f 46f
10:36 8 10 mph 998.4mb 48f 46f
10:30 7 9 mph 998.6mb 48f 46f
10:24 7 9 mph 998.7mb 48f 46f
10:18 7 9 mph 998.8mb 48f 46f
10:12 7 10 mph 998.8mb 48f 46f
10:06 7 9 mph 998.9mb 48f 46f
10:00 7 9 mph 998.9mb 48f 46f
9:54 8 9 mph 998.9mb 48f 47f
9:48 8 10 mph 998.9mb 48f 47f
9:36 7 10 mph 999mb 48f 47f
9:30 7 9 mph 999mb 48f 47f
9:24 8 10 mph 999mb 48f 47f
9:18 8 9 mph 999mb 48f 46f
9:12 8 9 mph 998.9mb 48f 46f
9:06 6 8 mph 998.9mb 48f 46f
9:00 7 8 mph 998.9mb 48f 46f
8:54 7 8 mph 998.9mb 48f 46f
8:48 6 7 mph 998.9mb 48f 46f
8:36 7 8 mph 998.9mb 48f 46f
8:30 7 8 mph 998.9mb 48f 46f
8:24 6
mph
998.9mb 48f 46f
8:18 5 6 mph 999.1mb 48f 47f
8:12 5 6 mph 999mb 48f 47f
8:06 5 7 mph 999.1mb 48f 47f
8:00 6 8 mph 999.1mb 48f 47f
7:54 7 8 mph 999.1mb 48f 47f
7:48 7 9 mph 999.1mb 48f 47f
7:36 9 11 mph 999.2mb 48f 47f
7:30 8 11 mph 999.2mb 48f 47f
7:24 8 10 mph 999.3mb 48f 47f
7:18 10 11 mph 999.4mb 48f 47f
7:12 9 14 mph 999.5mb 48f 47f
7:06 13 15 mph 999.5mb 48f 47f
7:00 10 11 mph 999.4mb 48f 47f
6:54 11 14 mph 999.3mb 48f 47f
6:48 11 14 mph 999.3mb 48f 47f
6:36 11 14 mph 999.4mb 48f 47f
6:30 14 15 mph 999.4mb 48f 47f
6:24 14 15 mph 999.4mb 48f 47f
6:18 15 16 mph 999.4mb 48f 47f
6:12 15 17 mph 999.5mb 48f 47f
6:06 14 17 mph 999.5mb 48f 47f
6:00 16 18 mph 999.6mb 48f 47f
5:54 15 20 mph 999.7mb 48f 47f
5:48 17 20 mph 999.7mb 48f 47f
5:36 16 20 mph 999.7mb 48f 47f
5:30 16 20 mph 999.7mb 48f 47f
5:24 16 20 mph 999.7mb 48f 47f
5:18 15 18 mph 999.7mb 48f 48f
5:12 17 20 mph 999.7mb 48f 48f
5:06 18 22 mph 999.8mb 48f 48f
5:00 17 21 mph 999.8mb 48f 48f
4:36 18 23 mph 1000mb 48f 48f
4:30 21 22 mph 1000.1mb 48f 48f
4:24 21 23 mph 1000.2mb 48f 49f
4:18 21 22 mph 1000.2mb 48f 49f
4:12 18 21 mph 1000.2mb 48f 49f
4:06 22 24 mph 1000.3mb 48f 49f
4:00 21 22 mph 1000.4mb 48f 49f
3:54 22 24 mph 1000.4mb 48f 50f
3:48 21 22 mph 1000.4mb 48f 50f
3:36 17 18 mph 1000.5mb 48f 50f
3:30 16 18 mph 1000.7mb 48f 50f
3:24 15 16 mph 1000.8mb 48f 50f
3:18 15 16 mph 1000.8mb 48f 50f
3:12 15 16 mph 1000.9mb 48f 50f
3:06 15 16 mph 1001mb 48f 50f
3:00 14 15 mph 1001.1mb 48f 50f
2:54 13 14 mph 1001.1mb 48f 50f
2:48 13 14 mph 1001.1mb 48f 50f
2:36 11 13 mph 1001.3mb 48f 51f
2:30 13 14 mph 1001.4mb 48f 51f
2:24 10 14 mph 1001.4mb 48f 51f
2:18 9 10 mph 1001.4mb 48f 52f
2:12 6 7 mph 1001.4mb 48f 53f
2:06 5 6 mph 1001.5mb 48f 53f
2:00 6 7 mph 1001.5mb 48f 53f
1:54 6 8 mph 1001.5mb 48f 52f
1:48 7 9 mph 1001.5mb 48f 51f
1:36 5 8 mph 1001.9mb 48f 52f
1:30 8 9 mph 1001.9mb 48f 51f
1:24 7 10 mph 1002mb 48f 51f
1:18 8 11 mph 1002.1mb 48f 51f
1:12 7 10 mph 1002.2mb 48f 51f
1:06 7 10 mph 1002.3mb 48f 51f
1:00 8 13 mph 1002.4mb 48f 51f
12:54 8 13 mph 1002.5mb 48f 50f
12:48 8 13 mph 1002.7mb 48f 50f
12:36 6 13 mph 1003mb 48f 49f
12:30 7 13 mph 1003.2mb 48f 49f
12:24 10 13 mph 1003.3mb 48f 48f
12:18 9 14 mph 1003.5mb 48f 48f
12:12 9 14 mph 1003.6mb 48f 48f
12:06 10 15 mph 1003.7mb 48f 48f
12:00 10 14 mph 1003.8mb 48f 47f
11:54 8 14 mph 1004mb 48f 47f
11:48 11 16 mph 1004.2mb 48f 47f
11:36 11 15 mph 1004.6mb 48f 45f
11:30 10 15 mph 1004.7mb 48f 46f
11:24 11 15 mph 1004.8mb 48f 45f
11:18 9 15 mph 1004.8mb 48f 45f
11:12 13 17 mph 1004.9mb 48f 44f
11:06 14 16 mph 1005mb 48f 44f
11:00 11 15 mph 1005mb 48f 44f
10:54 13 15 mph 1005mb 48f 44f
10:48 11 14 mph 1005mb 48f 43f
10:36 14 15 mph 1005mb 48f 43f
10:30 10 14 mph 1005.1mb 48f 43f
10:24 9 14 mph 1005.1mb 48f 43f
10:18 10 14 mph 1005.1mb 48f 44f
10:12 9 11 mph 1005.1mb 48f 44f
10:06 11 13 mph 1005.2mb 48f 44f
10:00 9 11 mph 1005.3mb 48f 44f
9:36 6 10 mph 1005.6mb 48f 45f
9:30 9 11 mph 1005.7mb 48f 44f
9:24 10 11 mph 1005.8mb 48f 44f
9:18 8 13 mph 1005.8mb 48f 45f
9:12 11 14 mph 1005.9mb 48f 44f
9:06 13 15 mph 1005.9mb 48f 44f
9:00 11 14 mph 1006mb 48f 44f
8:54 10 13 mph 1006mb 48f 44f
8:48 9 13 mph 1006.1mb 48f 44f
8:36 10 13 mph 1006.2mb 48f 44f
8:30 10 13 mph 1006.2mb 48f 44f
8:24 10 13 mph 1006.2mb 48f 44f
8:18 9 11 mph 1006.2mb 48f 44f
8:12 9 11 mph 1006.3mb 48f 44f
8:06 8 9 mph 1006.3mb 49f 44f
8:00 8 9 mph 1006.3mb 49f 44f
7:54 7 8 mph 1006.4mb 48f 44f
7:48 7 8 mph 1006.3mb 48f 43f
7:36 7
mph
1006.4mb 49f 43f
7:30 7
mph
1006.4mb 48f 43f
7:24 5 6 mph 1006.3mb 49f 43f
7:18 6
mph
1006.3mb 48f 43f
7:12 6
mph
1006.3mb 48f 43f
7:06 6
mph
1006.3mb 48f 43f
7:00 6
mph
1006.3mb 48f 43f
6:54 6 7 mph 1006.3mb 48f 43f
6:48 6 7 mph 1006.3mb 49f 43f
6:36 6 8 mph 1006.3mb 48f 43f
6:30 7 9 mph 1006.4mb 49f 43f
6:24 7 9 mph 1006.5mb 49f 44f
6:18 8 9 mph 1006.6mb 49f 44f
6:12 8 9 mph 1006.6mb 49f 44f
6:06 7 9 mph 1006.5mb 49f 44f
6:00 8 9 mph 1006.6mb 49f 44f
5:54 8 9 mph 1006.6mb 49f 44f
5:48 7 9 mph 1006.6mb 49f 44f
5:36 7 10 mph 1006.5mb 49f 44f
5:30 8 10 mph 1006.6mb 49f 44f